createdAt,value
2018-07-30T00:00:54.248Z,28.10
2018-07-30T00:01:54.224Z,30.10
2018-07-30T00:02:54.209Z,29.30
2018-07-30T00:03:54.188Z,29.90
2018-07-30T00:04:54.161Z,29.50
2018-07-30T00:05:54.142Z,29.50
2018-07-30T00:06:54.130Z,30.00
2018-07-30T00:07:54.085Z,30.10
2018-07-30T00:08:54.087Z,29.70
2018-07-30T00:09:54.062Z,31.20
2018-07-30T00:10:54.031Z,32.60
2018-07-30T00:11:54.024Z,32.50
2018-07-30T00:12:54.007Z,33.60
2018-07-30T00:13:53.989Z,34.10
2018-07-30T00:14:53.952Z,30.40
2018-07-30T00:15:53.950Z,31.40
2018-07-30T00:16:53.908Z,34.00
2018-07-30T00:17:53.914Z,31.70
2018-07-30T00:18:53.891Z,32.90
2018-07-30T00:19:53.867Z,33.10
2018-07-30T00:20:53.849Z,33.40
2018-07-30T00:21:53.834Z,34.40
2018-07-30T00:22:53.812Z,32.00
2018-07-30T00:23:53.799Z,30.60
2018-07-30T00:24:53.772Z,31.50
2018-07-30T00:25:53.751Z,33.10
2018-07-30T00:26:53.737Z,33.40
2018-07-30T00:27:53.709Z,32.20
2018-07-30T00:28:53.693Z,33.50
2018-07-30T00:29:53.682Z,34.40
2018-07-30T00:30:53.654Z,35.40
2018-07-30T00:31:53.633Z,33.30
2018-07-30T00:32:53.614Z,34.10
2018-07-30T00:33:53.590Z,34.00
2018-07-30T00:34:53.553Z,34.60
2018-07-30T00:35:53.536Z,34.00
2018-07-30T00:36:53.536Z,34.70
2018-07-30T00:37:53.495Z,31.60
2018-07-30T00:38:53.490Z,32.00
2018-07-30T00:39:53.475Z,31.60
2018-07-30T00:40:53.454Z,32.10
2018-07-30T00:41:53.417Z,32.40
2018-07-30T00:42:53.415Z,31.90
2018-07-30T00:43:53.390Z,34.10
2018-07-30T00:44:53.372Z,33.20
2018-07-30T00:45:53.360Z,33.40
2018-07-30T00:46:53.330Z,34.00
2018-07-30T00:47:53.314Z,34.60
2018-07-30T00:48:53.289Z,33.40
2018-07-30T00:49:53.275Z,35.00
2018-07-30T00:50:53.256Z,32.40
2018-07-30T00:51:53.236Z,33.30
2018-07-30T00:52:53.214Z,35.00
2018-07-30T00:53:53.196Z,35.00
2018-07-30T00:54:53.205Z,36.10
2018-07-30T00:55:53.160Z,35.70
2018-07-30T00:56:53.141Z,34.70
2018-07-30T00:57:53.117Z,35.00
2018-07-30T00:58:53.078Z,35.90
2018-07-30T00:59:53.053Z,36.80
2018-07-30T01:00:53.050Z,35.60
2018-07-30T01:01:53.030Z,35.20
2018-07-30T01:02:52.996Z,36.50
2018-07-30T01:03:52.993Z,35.70
2018-07-30T01:04:52.969Z,36.80
2018-07-30T01:05:52.939Z,36.30
2018-07-30T01:06:52.937Z,35.10
2018-07-30T01:07:52.917Z,35.40
2018-07-30T01:08:52.889Z,36.70
2018-07-30T01:09:52.873Z,35.70
2018-07-30T01:10:52.849Z,34.90
2018-07-30T01:11:52.835Z,34.20
2018-07-30T01:12:52.816Z,36.20
2018-07-30T01:13:52.794Z,36.10
2018-07-30T01:14:52.774Z,35.10
2018-07-30T01:15:52.751Z,35.50
2018-07-30T01:16:52.729Z,35.90
2018-07-30T01:17:52.713Z,38.10
2018-07-30T01:18:52.689Z,38.70
2018-07-30T01:19:52.669Z,38.80
2018-07-30T01:20:52.653Z,39.20
2018-07-30T01:21:52.632Z,40.40
2018-07-30T01:22:52.593Z,40.00
2018-07-30T01:23:52.588Z,39.30
2018-07-30T01:24:52.572Z,39.80
2018-07-30T01:25:52.553Z,40.80
2018-07-30T01:26:52.532Z,40.60
2018-07-30T01:27:52.512Z,40.40
2018-07-30T01:28:52.468Z,42.00
2018-07-30T01:29:52.471Z,41.60
2018-07-30T01:30:52.432Z,42.40
2018-07-30T01:31:52.432Z,38.60
2018-07-30T01:32:52.396Z,39.70
2018-07-30T01:33:52.386Z,39.50
2018-07-30T01:34:52.365Z,38.10
2018-07-30T01:35:52.349Z,38.40
2018-07-30T01:36:52.329Z,38.50
2018-07-30T01:37:52.321Z,38.20
2018-07-30T01:38:52.288Z,38.00
2018-07-30T01:39:52.271Z,37.70
2018-07-30T01:40:52.232Z,37.70
2018-07-30T01:41:52.227Z,38.70
2018-07-30T01:42:52.207Z,41.00
2018-07-30T01:43:52.189Z,40.00
2018-07-30T01:44:52.149Z,39.00
2018-07-30T01:45:52.145Z,38.90
2018-07-30T01:46:52.126Z,38.90
2018-07-30T01:47:52.104Z,41.90
2018-07-30T01:48:52.080Z,40.20
2018-07-30T01:49:52.064Z,38.30
2018-07-30T01:50:52.041Z,40.00
2018-07-30T01:51:52.025Z,38.90
2018-07-30T01:52:51.984Z,39.00
2018-07-30T01:53:51.988Z,39.40
2018-07-30T01:54:51.945Z,41.70
2018-07-30T01:55:51.938Z,39.50
2018-07-30T01:56:51.926Z,41.20
2018-07-30T01:57:51.897Z,39.90
2018-07-30T01:58:51.889Z,40.20
2018-07-30T01:59:51.860Z,39.10
2018-07-30T02:00:51.841Z,40.30
2018-07-30T02:01:51.800Z,40.10
2018-07-30T02:02:51.777Z,42.80
2018-07-30T02:03:51.759Z,41.80
2018-07-30T02:04:51.741Z,46.90
2018-07-30T02:05:51.737Z,43.40
2018-07-30T02:06:51.714Z,43.10
2018-07-30T02:07:51.700Z,50.50
2018-07-30T02:08:51.677Z,71.00
2018-07-30T02:09:51.652Z,50.60
2018-07-30T02:10:51.636Z,47.90
2018-07-30T02:11:51.616Z,47.40
2018-07-30T02:12:51.590Z,44.80
2018-07-30T02:13:51.574Z,45.90
2018-07-30T02:14:51.649Z,48.50
2018-07-30T02:15:51.535Z,45.70
2018-07-30T02:16:51.516Z,45.20
2018-07-30T02:17:51.493Z,46.50
2018-07-30T02:18:51.467Z,43.90
2018-07-30T02:19:51.452Z,43.10
2018-07-30T02:20:51.426Z,43.20
2018-07-30T02:21:51.416Z,43.50
2018-07-30T02:22:51.390Z,44.60
2018-07-30T02:23:51.367Z,43.90
2018-07-30T02:24:51.348Z,43.00
2018-07-30T02:25:51.330Z,44.60
2018-07-30T02:26:51.306Z,43.00
2018-07-30T02:27:51.283Z,43.80
2018-07-30T02:28:51.273Z,43.90
2018-07-30T02:29:51.248Z,43.90
2018-07-30T02:30:51.228Z,44.60
2018-07-30T02:31:51.208Z,42.60
2018-07-30T02:32:51.185Z,41.10
2018-07-30T02:33:51.160Z,43.30
2018-07-30T02:34:51.143Z,44.20
2018-07-30T02:35:51.124Z,42.60
2018-07-30T02:36:51.102Z,42.80
2018-07-30T02:37:51.065Z,42.00
2018-07-30T02:38:51.059Z,43.40
2018-07-30T02:39:51.039Z,42.60
2018-07-30T02:40:51.018Z,42.50
2018-07-30T02:41:51.004Z,40.70
2018-07-30T02:42:50.983Z,42.00
2018-07-30T02:43:50.954Z,41.30
2018-07-30T02:44:50.933Z,39.10
2018-07-30T02:45:50.896Z,41.00
2018-07-30T02:46:50.897Z,40.30
2018-07-30T02:47:50.870Z,40.40
2018-07-30T02:48:50.854Z,40.00
2018-07-30T02:49:50.833Z,37.30
2018-07-30T02:50:50.794Z,38.70
2018-07-30T02:51:50.792Z,39.10
2018-07-30T02:52:50.771Z,36.70
2018-07-30T02:53:50.749Z,37.40
2018-07-30T02:54:50.734Z,37.50
2018-07-30T02:55:50.710Z,36.70
2018-07-30T02:56:50.689Z,35.90
2018-07-30T02:57:50.667Z,35.80
2018-07-30T02:58:50.643Z,34.50
2018-07-30T02:59:50.627Z,34.50
2018-07-30T03:00:50.600Z,33.80
2018-07-30T03:01:50.584Z,35.70
2018-07-30T03:02:50.563Z,33.80
2018-07-30T03:03:50.543Z,34.60
2018-07-30T03:04:50.522Z,33.20
2018-07-30T03:05:50.497Z,34.00
2018-07-30T03:06:50.464Z,33.10
2018-07-30T03:07:50.460Z,33.30
2018-07-30T03:08:50.435Z,33.30
2018-07-30T03:09:50.419Z,34.00
2018-07-30T03:10:50.397Z,34.00
2018-07-30T03:11:50.378Z,32.00
2018-07-30T03:12:50.335Z,34.20
2018-07-30T03:13:50.335Z,34.50
2018-07-30T03:14:50.309Z,34.50
2018-07-30T03:15:50.294Z,31.40
2018-07-30T03:16:50.279Z,31.20
2018-07-30T03:17:50.252Z,31.30
2018-07-30T03:18:50.227Z,30.50
2018-07-30T03:19:50.215Z,29.70
2018-07-30T03:20:50.189Z,30.00
2018-07-30T03:21:50.144Z,29.80
2018-07-30T03:22:50.152Z,27.90
2018-07-30T03:23:50.131Z,26.80
2018-07-30T03:24:50.108Z,26.40
2018-07-30T03:25:50.089Z,26.90
2018-07-30T03:26:50.062Z,26.10
2018-07-30T03:27:50.039Z,24.70
2018-07-30T03:28:50.132Z,24.40
2018-07-30T03:29:49.997Z,24.80
2018-07-30T03:30:49.985Z,25.30
2018-07-30T03:31:49.942Z,24.10
2018-07-30T03:32:49.939Z,24.70
2018-07-30T03:33:49.921Z,24.10
2018-07-30T03:34:49.876Z,23.70
2018-07-30T03:35:49.861Z,23.40
2018-07-30T03:36:49.856Z,23.30
2018-07-30T03:37:49.835Z,21.70
2018-07-30T03:38:49.791Z,24.30
2018-07-30T03:39:49.789Z,22.30
2018-07-30T03:40:49.767Z,23.90
2018-07-30T03:41:49.747Z,21.80
2018-07-30T03:42:49.730Z,23.50
2018-07-30T03:43:49.705Z,22.70
2018-07-30T03:44:49.683Z,21.40
2018-07-30T03:45:49.662Z,22.40
2018-07-30T03:46:49.648Z,22.10
2018-07-30T03:47:49.626Z,20.80
2018-07-30T03:48:49.598Z,21.80
2018-07-30T03:49:49.584Z,20.90
2018-07-30T03:50:49.564Z,21.70
2018-07-30T03:51:49.544Z,21.90
2018-07-30T03:52:49.504Z,22.50
2018-07-30T03:54:22.697Z,21.40
2018-07-30T03:54:49.493Z,23.00
2018-07-30T03:55:49.457Z,22.00
2018-07-30T03:56:49.432Z,21.80
2018-07-30T03:57:49.396Z,21.00
2018-07-30T03:58:49.394Z,21.80
2018-07-30T03:59:49.373Z,20.70
2018-07-30T04:00:49.356Z,22.80
2018-07-30T04:01:49.336Z,21.80
2018-07-30T04:02:49.294Z,21.10
2018-07-30T04:03:49.294Z,20.40
2018-07-30T04:04:49.269Z,22.00
2018-07-30T04:05:49.276Z,19.60
2018-07-30T04:06:49.227Z,21.70
2018-07-30T04:07:49.207Z,20.10
2018-07-30T04:08:49.184Z,21.20
2018-07-30T04:09:49.159Z,19.50
2018-07-30T04:10:49.139Z,20.10
2018-07-30T04:11:49.122Z,20.10
2018-07-30T04:12:49.169Z,19.60
2018-07-30T04:13:49.079Z,19.70
2018-07-30T04:14:49.059Z,20.20
2018-07-30T04:15:49.042Z,19.50
2018-07-30T04:16:48.997Z,19.00
2018-07-30T04:17:48.995Z,20.10
2018-07-30T04:18:48.975Z,20.00
2018-07-30T04:19:48.952Z,17.90
2018-07-30T04:20:48.931Z,19.80
2018-07-30T04:21:48.888Z,21.00
2018-07-30T04:22:48.885Z,19.70
2018-07-30T04:23:48.866Z,20.40
2018-07-30T04:24:48.832Z,20.10
2018-07-30T04:25:48.827Z,20.10
2018-07-30T04:26:48.788Z,19.80
2018-07-30T04:27:48.787Z,19.40
2018-07-30T04:28:48.762Z,19.30
2018-07-30T04:29:48.742Z,19.20
2018-07-30T04:30:48.725Z,18.90
2018-07-30T04:31:48.700Z,19.10
2018-07-30T04:32:49.086Z,18.30
2018-07-30T04:33:48.653Z,19.80
2018-07-30T04:34:48.637Z,19.10
2018-07-30T04:35:48.618Z,19.60
2018-07-30T04:36:48.598Z,20.90
2018-07-30T04:37:48.573Z,19.60
2018-07-30T04:38:48.553Z,19.20
2018-07-30T04:39:48.534Z,20.40
2018-07-30T04:40:48.493Z,20.60
2018-07-30T04:41:48.485Z,21.00
2018-07-30T04:42:48.465Z,19.90
2018-07-30T04:43:48.504Z,19.70
2018-07-30T04:44:48.432Z,19.20
2018-07-30T04:45:48.387Z,19.30
2018-07-30T04:46:48.380Z,19.00
2018-07-30T04:47:48.365Z,20.00
2018-07-30T04:48:48.340Z,19.50
2018-07-30T04:49:48.320Z,19.70
2018-07-30T04:50:48.301Z,19.20
2018-07-30T04:51:48.274Z,19.70
2018-07-30T04:52:48.235Z,19.30
2018-07-30T04:53:48.231Z,18.80
2018-07-30T04:54:48.194Z,19.00
2018-07-30T04:55:48.188Z,19.80
2018-07-30T04:56:48.172Z,18.40
2018-07-30T04:57:48.151Z,19.00
2018-07-30T04:58:48.134Z,18.50
2018-07-30T04:59:48.115Z,18.30
2018-07-30T05:00:48.091Z,18.20
2018-07-30T05:01:48.068Z,19.20
2018-07-30T05:02:48.044Z,18.60
2018-07-30T05:03:48.071Z,18.50
2018-07-30T05:04:47.997Z,19.70
2018-07-30T05:05:47.980Z,18.70
2018-07-30T05:06:47.936Z,17.20
2018-07-30T05:07:47.922Z,18.30
2018-07-30T05:08:47.923Z,17.60
2018-07-30T05:09:47.893Z,17.60
2018-07-30T05:10:47.853Z,18.70
2018-07-30T05:11:47.850Z,18.50
2018-07-30T05:12:47.831Z,18.50
2018-07-30T05:13:47.791Z,17.60
2018-07-30T05:14:47.793Z,18.30
2018-07-30T05:15:47.767Z,18.40
2018-07-30T05:16:47.746Z,18.90
2018-07-30T05:17:47.725Z,18.40
2018-07-30T05:18:47.682Z,19.50
2018-07-30T05:19:47.685Z,19.40
2018-07-30T05:20:47.666Z,18.80
2018-07-30T05:21:47.644Z,18.70
2018-07-30T05:22:47.624Z,19.40
2018-07-30T05:23:47.593Z,18.90
2018-07-30T05:24:47.571Z,20.20
2018-07-30T05:25:47.554Z,19.20
2018-07-30T05:26:47.536Z,19.30
2018-07-30T05:27:47.507Z,18.30
2018-07-30T05:28:47.476Z,19.70
2018-07-30T05:29:47.446Z,18.70
2018-07-30T05:30:47.449Z,19.30
2018-07-30T05:31:47.425Z,19.60
2018-07-30T05:33:20.613Z,19.10
2018-07-30T05:33:47.362Z,18.10
2018-07-30T05:34:47.363Z,17.30
2018-07-30T05:35:47.341Z,18.80
2018-07-30T05:36:47.315Z,18.00
2018-07-30T05:37:47.294Z,17.80
2018-07-30T05:38:47.277Z,17.90
2018-07-30T05:39:47.256Z,17.60
2018-07-30T05:40:47.230Z,16.90
2018-07-30T05:41:47.212Z,17.30
2018-07-30T05:42:47.248Z,19.10
2018-07-30T05:43:47.166Z,17.50
2018-07-30T05:44:47.147Z,17.00
2018-07-30T05:45:47.128Z,16.60
2018-07-30T05:46:47.090Z,16.90
2018-07-30T05:47:47.081Z,16.70
2018-07-30T05:48:47.041Z,17.20
2018-07-30T05:49:47.040Z,17.80
2018-07-30T05:50:47.025Z,18.10
2018-07-30T05:51:47.002Z,18.00
2018-07-30T05:52:46.977Z,17.70
2018-07-30T05:53:46.957Z,18.30
2018-07-30T05:54:46.940Z,17.40
2018-07-30T05:55:46.917Z,17.90
2018-07-30T05:56:46.892Z,19.40
2018-07-30T05:57:46.866Z,18.90
2018-07-30T05:58:46.846Z,19.00
2018-07-30T05:59:46.876Z,20.50
2018-07-30T06:00:46.806Z,20.00
2018-07-30T06:01:46.789Z,21.60
2018-07-30T06:02:46.768Z,23.90
2018-07-30T06:03:46.739Z,24.10
2018-07-30T06:04:46.716Z,25.10
2018-07-30T06:05:46.699Z,25.70
2018-07-30T06:06:46.678Z,26.20
2018-07-30T06:07:46.656Z,26.00
2018-07-30T06:08:46.619Z,27.30
2018-07-30T06:09:46.728Z,25.90
2018-07-30T06:10:46.571Z,29.60
2018-07-30T06:11:46.549Z,27.90
2018-07-30T06:12:46.547Z,27.90
2018-07-30T06:13:46.508Z,27.70
2018-07-30T06:14:46.504Z,28.60
2018-07-30T06:15:46.484Z,28.70
2018-07-30T06:16:46.464Z,29.10
2018-07-30T06:17:46.442Z,29.60
2018-07-30T06:18:46.412Z,29.60
2018-07-30T06:19:46.390Z,31.00
2018-07-30T06:20:46.364Z,32.50
2018-07-30T06:21:46.346Z,31.70
2018-07-30T06:22:46.323Z,32.00
2018-07-30T06:23:46.307Z,33.50
2018-07-30T06:24:46.280Z,30.90
2018-07-30T06:25:46.262Z,33.00
2018-07-30T06:26:46.222Z,32.60
2018-07-30T06:27:46.217Z,30.80
2018-07-30T06:28:46.196Z,31.60
2018-07-30T06:29:46.177Z,30.80
2018-07-30T06:30:46.153Z,30.90
2018-07-30T06:31:46.175Z,30.80
2018-07-30T06:32:46.110Z,32.40
2018-07-30T06:33:46.070Z,30.20
2018-07-30T06:34:46.059Z,33.00
2018-07-30T06:35:46.025Z,30.80
2018-07-30T06:36:46.021Z,31.20
2018-07-30T06:37:45.995Z,30.30
2018-07-30T06:38:45.971Z,30.30
2018-07-30T06:39:45.951Z,28.50
2018-07-30T06:40:45.937Z,28.70
2018-07-30T06:41:45.909Z,29.90
2018-07-30T06:42:45.888Z,29.10
2018-07-30T06:43:45.862Z,28.60
2018-07-30T06:44:45.844Z,28.80
2018-07-30T06:45:45.821Z,28.90
2018-07-30T06:46:45.802Z,31.00
2018-07-30T06:47:45.779Z,28.70
2018-07-30T06:48:45.752Z,28.80
2018-07-30T06:49:45.730Z,30.50
2018-07-30T06:50:45.713Z,28.10
2018-07-30T06:51:45.690Z,29.20
2018-07-30T06:52:45.662Z,28.30
2018-07-30T06:53:45.647Z,27.70
2018-07-30T06:54:45.625Z,27.50
2018-07-30T06:55:45.608Z,26.20
2018-07-30T06:56:45.580Z,26.60
2018-07-30T06:57:45.554Z,27.80
2018-07-30T06:58:45.536Z,28.20
2018-07-30T06:59:45.516Z,28.40
2018-07-30T07:00:45.473Z,28.20
2018-07-30T07:01:45.451Z,27.30
2018-07-30T07:02:45.448Z,29.30
2018-07-30T07:03:45.421Z,29.90
2018-07-30T07:04:45.403Z,28.00
2018-07-30T07:05:45.382Z,28.40
2018-07-30T07:06:45.341Z,26.90
2018-07-30T07:07:45.333Z,29.90
2018-07-30T07:08:45.312Z,28.40
2018-07-30T07:09:45.289Z,29.50
2018-07-30T07:10:45.272Z,29.80
2018-07-30T07:11:45.252Z,28.80
2018-07-30T07:12:45.231Z,29.90
2018-07-30T07:13:45.206Z,30.10
2018-07-30T07:14:45.181Z,29.90
2018-07-30T07:15:45.162Z,29.60
2018-07-30T07:16:45.153Z,30.80
2018-07-30T07:17:45.118Z,29.00
2018-07-30T07:18:45.092Z,30.00
2018-07-30T07:19:45.075Z,29.40
2018-07-30T07:20:45.122Z,30.40
2018-07-30T07:21:45.111Z,30.00
2018-07-30T07:22:45.010Z,29.70
2018-07-30T07:23:44.989Z,31.20
2018-07-30T07:24:44.949Z,30.10
2018-07-30T07:25:44.943Z,30.20
2018-07-30T07:26:44.915Z,31.60
2018-07-30T07:27:44.898Z,30.40
2018-07-30T07:28:44.853Z,30.90
2018-07-30T07:29:44.859Z,30.60
2018-07-30T07:30:44.826Z,29.60
2018-07-30T07:31:44.791Z,30.30
2018-07-30T07:32:44.768Z,30.50
2018-07-30T07:33:44.743Z,31.40
2018-07-30T07:34:44.743Z,30.70
2018-07-30T07:35:44.721Z,29.70
2018-07-30T07:36:44.695Z,30.30
2018-07-30T07:37:44.678Z,29.80
2018-07-30T07:38:44.661Z,29.70
2018-07-30T07:39:44.633Z,29.60
2018-07-30T07:40:44.605Z,30.80
2018-07-30T07:41:44.570Z,29.90
2018-07-30T07:42:44.562Z,29.40
2018-07-30T07:43:44.546Z,29.50
2018-07-30T07:44:44.521Z,29.00
2018-07-30T07:45:44.503Z,30.00
2018-07-30T07:46:44.475Z,28.90
2018-07-30T07:47:44.464Z,29.20
2018-07-30T07:48:44.435Z,28.80
2018-07-30T07:49:44.412Z,29.30
2018-07-30T07:50:44.638Z,29.00
2018-07-30T07:51:44.366Z,28.70
2018-07-30T07:52:44.351Z,29.70
2018-07-30T07:53:44.319Z,29.30
2018-07-30T07:54:44.300Z,30.80
2018-07-30T07:55:44.264Z,29.90
2018-07-30T07:56:44.251Z,29.50
2018-07-30T07:57:44.214Z,30.60
2018-07-30T07:58:44.210Z,30.10
2018-07-30T07:59:44.194Z,29.80
2018-07-30T08:00:44.166Z,30.10
2018-07-30T08:01:44.143Z,27.90
2018-07-30T08:02:44.118Z,30.20
2018-07-30T08:03:44.103Z,30.30
2018-07-30T08:04:44.078Z,30.50
2018-07-30T08:05:44.055Z,29.20
2018-07-30T08:06:44.033Z,29.20
2018-07-30T08:07:44.015Z,28.20
2018-07-30T08:08:43.988Z,29.70
2018-07-30T08:09:44.011Z,29.20
2018-07-30T08:10:43.947Z,31.30
2018-07-30T08:11:43.917Z,31.30
2018-07-30T08:12:43.896Z,31.80
2018-07-30T08:13:43.877Z,32.20
2018-07-30T08:14:43.850Z,30.90
2018-07-30T08:15:43.828Z,31.80
2018-07-30T08:16:43.811Z,33.60
2018-07-30T08:17:43.788Z,33.00
2018-07-30T08:18:43.768Z,34.80
2018-07-30T08:19:43.840Z,35.10
2018-07-30T08:20:43.698Z,35.90
2018-07-30T08:21:43.699Z,36.10
2018-07-30T08:22:43.674Z,34.50
2018-07-30T08:23:43.656Z,32.90
2018-07-30T08:24:43.627Z,33.40
2018-07-30T08:25:43.610Z,34.80
2018-07-30T08:26:43.588Z,32.60
2018-07-30T08:27:43.561Z,35.50
2018-07-30T08:28:43.541Z,37.50
2018-07-30T08:29:43.539Z,36.50
2018-07-30T08:30:43.493Z,35.70
2018-07-30T08:31:43.453Z,38.50
2018-07-30T08:32:43.450Z,37.50
2018-07-30T08:33:43.437Z,37.70
2018-07-30T08:34:43.413Z,36.80
2018-07-30T08:35:43.365Z,38.20
2018-07-30T08:36:43.366Z,39.30
2018-07-30T08:37:43.329Z,36.80
2018-07-30T08:38:43.319Z,34.70
2018-07-30T08:39:43.292Z,37.30
2018-07-30T08:40:43.275Z,33.10
2018-07-30T08:41:43.253Z,34.40
2018-07-30T08:42:43.210Z,32.10
2018-07-30T08:43:43.188Z,36.20
2018-07-30T08:44:43.183Z,36.40
2018-07-30T08:45:43.162Z,37.80
2018-07-30T08:46:43.135Z,36.80
2018-07-30T08:47:43.105Z,37.80
2018-07-30T08:48:43.095Z,37.80
2018-07-30T08:49:43.067Z,37.00
2018-07-30T08:50:43.048Z,38.40
2018-07-30T08:51:43.023Z,38.00
2018-07-30T08:52:43.008Z,38.80
2018-07-30T08:53:42.977Z,36.20
2018-07-30T08:54:42.957Z,40.60
2018-07-30T08:55:42.937Z,37.70
2018-07-30T08:56:42.916Z,37.40
2018-07-30T08:57:42.895Z,37.10
2018-07-30T08:58:42.866Z,38.20
2018-07-30T08:59:42.845Z,39.30
2018-07-30T09:00:42.827Z,39.00
2018-07-30T09:01:42.806Z,38.80
2018-07-30T09:02:42.774Z,38.90
2018-07-30T09:03:42.759Z,40.40
2018-07-30T09:04:42.711Z,39.90
2018-07-30T09:05:42.711Z,38.30
2018-07-30T09:06:42.691Z,39.20
2018-07-30T09:07:42.644Z,40.20
2018-07-30T09:08:42.641Z,43.30
2018-07-30T09:09:42.600Z,41.20
2018-07-30T09:10:42.591Z,42.20
2018-07-30T09:11:42.573Z,40.40
2018-07-30T09:12:42.589Z,42.50
2018-07-30T09:13:42.523Z,43.60
2018-07-30T09:14:42.501Z,44.00
2018-07-30T09:15:42.482Z,42.90
2018-07-30T09:16:42.458Z,43.00
2018-07-30T09:17:42.435Z,42.40
2018-07-30T09:18:42.410Z,44.60
2018-07-30T09:19:42.390Z,42.80
2018-07-30T09:20:42.361Z,45.90
2018-07-30T09:21:42.349Z,44.80
2018-07-30T09:22:42.325Z,45.50
2018-07-30T09:23:42.299Z,44.30
2018-07-30T09:24:42.269Z,45.80
2018-07-30T09:25:42.246Z,45.80
2018-07-30T09:26:42.228Z,44.70
2018-07-30T09:27:42.210Z,44.10
2018-07-30T09:28:42.190Z,44.00
2018-07-30T09:29:42.145Z,44.70
2018-07-30T09:30:42.130Z,42.40
2018-07-30T09:31:42.092Z,42.50
2018-07-30T09:32:42.111Z,40.10
2018-07-30T09:33:42.064Z,39.80
2018-07-30T09:34:42.047Z,40.60
2018-07-30T09:35:42.017Z,39.60
2018-07-30T09:36:42.000Z,38.90
2018-07-30T09:37:41.974Z,37.10
2018-07-30T09:38:41.994Z,35.90
2018-07-30T09:39:42.086Z,36.90
2018-07-30T09:40:41.904Z,35.80
2018-07-30T09:41:41.882Z,33.90
2018-07-30T09:42:41.859Z,34.80
2018-07-30T09:43:41.835Z,34.40
2018-07-30T09:44:41.826Z,34.60
2018-07-30T09:45:41.792Z,35.00
2018-07-30T09:46:41.765Z,33.00
2018-07-30T09:47:41.745Z,35.20
2018-07-30T09:48:41.705Z,34.30
2018-07-30T09:49:41.694Z,34.80
2018-07-30T09:50:41.777Z,35.70
2018-07-30T09:51:41.652Z,35.60
2018-07-30T09:52:41.621Z,36.70
2018-07-30T09:53:41.600Z,36.20
2018-07-30T09:54:41.561Z,36.40
2018-07-30T09:55:41.534Z,37.40
2018-07-30T09:56:41.528Z,36.10
2018-07-30T09:57:41.488Z,37.70
2018-07-30T09:58:41.478Z,36.80
2018-07-30T09:59:41.458Z,37.90
2018-07-30T10:00:41.438Z,38.40
2018-07-30T10:01:41.415Z,39.60
2018-07-30T10:02:41.369Z,39.50
2018-07-30T10:03:41.362Z,38.80
2018-07-30T10:04:41.339Z,38.40
2018-07-30T10:05:41.317Z,38.50
2018-07-30T10:06:41.313Z,38.60
2018-07-30T10:07:41.265Z,37.90
2018-07-30T10:08:41.245Z,39.30
2018-07-30T10:09:41.202Z,40.10
2018-07-30T10:10:41.176Z,37.70
2018-07-30T10:11:41.190Z,38.90
2018-07-30T10:12:41.152Z,39.90
2018-07-30T10:13:41.125Z,40.30
2018-07-30T10:14:41.101Z,39.30
2018-07-30T10:15:41.062Z,37.70
2018-07-30T10:16:41.051Z,39.00
2018-07-30T10:17:41.077Z,38.40
2018-07-30T10:18:40.990Z,39.70
2018-07-30T10:19:40.987Z,38.90
2018-07-30T10:20:40.968Z,40.60
2018-07-30T10:21:40.938Z,40.60
2018-07-30T10:22:40.911Z,40.00
2018-07-30T10:23:40.916Z,39.70
2018-07-30T10:24:40.849Z,39.80
2018-07-30T10:25:40.841Z,41.40
2018-07-30T10:26:40.820Z,40.70
2018-07-30T10:27:40.795Z,40.00
2018-07-30T10:28:40.771Z,37.90
2018-07-30T10:29:40.749Z,40.90
2018-07-30T10:30:40.769Z,39.30
2018-07-30T10:31:40.709Z,39.30
2018-07-30T10:32:40.675Z,38.70
2018-07-30T10:33:40.661Z,38.30
2018-07-30T10:34:40.634Z,39.50
2018-07-30T10:35:40.592Z,41.80
2018-07-30T10:36:40.571Z,39.20
2018-07-30T10:37:40.560Z,39.10
2018-07-30T10:38:40.544Z,38.90
2018-07-30T10:39:40.515Z,38.80
2018-07-30T10:40:40.493Z,38.40
2018-07-30T10:41:40.472Z,38.80
2018-07-30T10:42:40.450Z,39.60
2018-07-30T10:43:40.422Z,39.30
2018-07-30T10:44:40.400Z,39.60
2018-07-30T10:45:40.387Z,38.00
2018-07-30T10:46:40.359Z,39.70
2018-07-30T10:47:40.335Z,38.10
2018-07-30T10:48:40.311Z,38.00
2018-07-30T10:49:40.285Z,40.10
2018-07-30T10:50:40.270Z,39.30
2018-07-30T10:51:40.243Z,42.20
2018-07-30T10:52:40.205Z,39.20
2018-07-30T10:53:40.205Z,39.30
2018-07-30T10:54:40.163Z,38.90
2018-07-30T10:55:40.161Z,38.50
2018-07-30T10:56:40.136Z,39.80
2018-07-30T10:57:40.114Z,39.20
2018-07-30T10:58:40.126Z,39.20
2018-07-30T10:59:40.062Z,37.50
2018-07-30T11:00:40.054Z,40.60
2018-07-30T11:01:40.017Z,40.20
2018-07-30T11:02:39.995Z,38.80
2018-07-30T11:03:39.976Z,38.90
2018-07-30T11:04:39.949Z,37.20
2018-07-30T11:05:39.914Z,38.00
2018-07-30T11:06:39.911Z,37.00
2018-07-30T11:07:39.936Z,35.80
2018-07-30T11:08:39.868Z,36.30
2018-07-30T11:09:39.908Z,38.50
2018-07-30T11:10:39.834Z,37.60
2018-07-30T11:11:39.801Z,36.80
2018-07-30T11:12:39.762Z,36.00
2018-07-30T11:13:39.763Z,36.20
2018-07-30T11:14:39.771Z,35.20
2018-07-30T11:15:39.722Z,37.10
2018-07-30T11:16:39.707Z,37.80
2018-07-30T11:17:39.678Z,39.20
2018-07-30T11:18:39.668Z,39.70
2018-07-30T11:19:39.646Z,39.60
2018-07-30T11:20:39.618Z,41.60
2018-07-30T11:21:39.640Z,43.00
2018-07-30T11:22:39.564Z,40.30
2018-07-30T11:23:39.545Z,41.20
2018-07-30T11:24:39.538Z,44.00
2018-07-30T11:25:39.499Z,40.90
2018-07-30T11:26:39.507Z,42.40
2018-07-30T11:27:39.488Z,42.90
2018-07-30T11:28:39.459Z,41.60
2018-07-30T11:29:39.444Z,43.50
2018-07-30T11:30:39.424Z,43.70
2018-07-30T11:31:39.427Z,44.00
2018-07-30T11:32:39.386Z,42.60
2018-07-30T11:33:39.430Z,43.90
2018-07-30T11:34:39.349Z,44.50
2018-07-30T11:35:39.327Z,44.20
2018-07-30T11:36:39.308Z,44.00
2018-07-30T11:37:39.288Z,46.30
2018-07-30T11:38:39.252Z,45.20
2018-07-30T11:39:39.303Z,44.90
2018-07-30T11:40:39.236Z,42.80
2018-07-30T11:41:39.203Z,44.40
2018-07-30T11:42:39.196Z,43.80
2018-07-30T11:43:39.201Z,44.50
2018-07-30T11:44:39.171Z,45.70
2018-07-30T11:45:39.146Z,44.80
2018-07-30T11:46:39.125Z,46.20
2018-07-30T11:47:39.103Z,44.40
2018-07-30T11:48:39.119Z,47.80
2018-07-30T11:49:39.073Z,44.00
2018-07-30T11:50:39.045Z,43.20
2018-07-30T11:51:39.033Z,44.60
2018-07-30T11:52:39.006Z,44.30
2018-07-30T11:53:39.001Z,45.50
2018-07-30T11:54:38.972Z,44.80
2018-07-30T11:55:38.947Z,45.50
2018-07-30T11:56:38.929Z,44.30
2018-07-30T11:57:38.907Z,45.80
2018-07-30T11:58:38.892Z,45.40
2018-07-30T11:59:38.874Z,44.20
2018-07-30T12:00:38.851Z,44.60
2018-07-30T12:01:38.812Z,46.40
2018-07-30T12:02:38.806Z,44.20
2018-07-30T12:03:38.796Z,42.20
2018-07-30T12:04:38.767Z,45.30
2018-07-30T12:05:38.726Z,42.90
2018-07-30T12:06:38.730Z,45.10
2018-07-30T12:07:38.715Z,44.80
2018-07-30T12:08:38.690Z,44.70
2018-07-30T12:09:38.668Z,43.80
2018-07-30T12:10:38.647Z,42.30
2018-07-30T12:11:38.610Z,42.20
2018-07-30T12:12:38.606Z,41.90
2018-07-30T12:13:38.696Z,45.70
2018-07-30T12:14:38.578Z,43.60
2018-07-30T12:15:38.554Z,44.60
2018-07-30T12:16:38.530Z,44.40
2018-07-30T12:17:38.514Z,43.70
2018-07-30T12:18:38.500Z,42.50
2018-07-30T12:19:38.481Z,44.30
2018-07-30T12:20:38.461Z,44.30
2018-07-30T12:21:38.486Z,43.60
2018-07-30T12:22:38.425Z,44.60
2018-07-30T12:23:38.432Z,43.80
2018-07-30T12:24:38.386Z,43.10
2018-07-30T12:25:38.353Z,44.10
2018-07-30T12:26:38.337Z,41.90
2018-07-30T12:27:38.336Z,42.40
2018-07-30T12:28:38.318Z,45.40
2018-07-30T12:29:38.323Z,42.40
2018-07-30T12:30:38.336Z,42.30
2018-07-30T12:31:38.276Z,44.20
2018-07-30T12:32:38.258Z,39.90
2018-07-30T12:33:38.238Z,41.10
2018-07-30T12:34:38.211Z,41.30
2018-07-30T12:35:38.188Z,41.90
2018-07-30T12:36:38.197Z,40.40
2018-07-30T12:37:38.181Z,40.10
2018-07-30T12:38:38.159Z,40.40
2018-07-30T12:39:38.141Z,38.20
2018-07-30T12:40:38.133Z,40.10
2018-07-30T12:41:38.114Z,38.60
2018-07-30T12:42:38.099Z,38.40
2018-07-30T12:43:38.079Z,36.40
2018-07-30T12:44:38.063Z,37.20
2018-07-30T12:45:38.054Z,36.00
2018-07-30T12:46:38.034Z,36.50
2018-07-30T12:47:38.032Z,33.80
2018-07-30T12:48:37.987Z,33.90
2018-07-30T12:49:38.007Z,32.90
2018-07-30T12:50:37.977Z,33.00
2018-07-30T12:51:37.957Z,27.80
2018-07-30T12:52:37.939Z,19.80